createdAt,value
2018-06-01T00:00:30.082Z,19.12
2018-06-01T00:01:30.061Z,19.12
2018-06-01T00:02:30.032Z,19.06
2018-06-01T00:03:30.039Z,19.12
2018-06-01T00:04:30.099Z,19.12
2018-06-01T00:05:30.081Z,19.12
2018-06-01T00:06:30.071Z,19.12
2018-06-01T00:07:30.065Z,19.12
2018-06-01T00:08:30.077Z,19.06
2018-06-01T00:09:30.057Z,19.06
2018-06-01T00:10:30.055Z,19.06
2018-06-01T00:11:30.086Z,19.12
2018-06-01T00:12:30.120Z,19
2018-06-01T00:13:30.069Z,19
2018-06-01T00:14:30.091Z,18.94
2018-06-01T00:15:30.168Z,18.94
2018-06-01T00:16:30.067Z,19
2018-06-01T00:17:30.117Z,19
2018-06-01T00:18:30.150Z,19
2018-06-01T00:19:30.113Z,19
2018-06-01T00:20:30.053Z,19
2018-06-01T00:21:30.093Z,19
2018-06-01T00:22:30.234Z,19.06
2018-06-01T00:23:30.165Z,19.06
2018-06-01T00:24:30.070Z,19.12
2018-06-01T00:25:30.149Z,19.12
2018-06-01T00:26:30.050Z,19.06
2018-06-01T00:27:30.104Z,19.06
2018-06-01T00:28:30.124Z,19.12
2018-06-01T00:29:30.117Z,19.19
2018-06-01T00:30:30.073Z,19.19
2018-06-01T00:31:30.085Z,19.19
2018-06-01T00:32:30.140Z,19.19
2018-06-01T00:33:30.079Z,19.19
2018-06-01T00:34:30.110Z,19.25
2018-06-01T00:35:30.149Z,19.31
2018-06-01T00:36:30.111Z,19.25
2018-06-01T00:37:30.094Z,19.25
2018-06-01T00:38:30.116Z,19.31
2018-06-01T00:39:30.175Z,19.19
2018-06-01T00:40:30.206Z,19.19
2018-06-01T00:41:30.147Z,19.25
2018-06-01T00:42:30.110Z,19.19
2018-06-01T00:43:30.116Z,19.19
2018-06-01T00:44:30.072Z,19.12
2018-06-01T00:45:30.107Z,19.12
2018-06-01T00:46:30.222Z,19.19
2018-06-01T00:47:30.079Z,19.19
2018-06-01T00:48:30.071Z,19.19
2018-06-01T00:49:30.219Z,19.06
2018-06-01T00:50:30.095Z,19.06
2018-06-01T00:51:30.083Z,19.06
2018-06-01T00:52:30.100Z,19.06
2018-06-01T00:53:30.095Z,19
2018-06-01T00:54:30.086Z,19
2018-06-01T00:55:30.083Z,19
2018-06-01T00:56:30.098Z,19
2018-06-01T00:57:30.112Z,19
2018-06-01T00:58:30.114Z,18.94
2018-06-01T00:59:30.138Z,18.94
2018-06-01T01:00:30.212Z,18.87
2018-06-01T01:01:30.105Z,18.87
2018-06-01T01:02:30.096Z,18.81
2018-06-01T01:03:30.096Z,18.87
2018-06-01T01:04:30.151Z,18.87
2018-06-01T01:05:30.093Z,18.87
2018-06-01T01:06:30.119Z,18.81
2018-06-01T01:07:30.144Z,18.81
2018-06-01T01:08:30.084Z,18.75
2018-06-01T01:09:30.105Z,18.69
2018-06-01T01:10:30.141Z,18.69
2018-06-01T01:11:30.141Z,18.69
2018-06-01T01:12:30.127Z,18.62
2018-06-01T01:13:30.170Z,18.62
2018-06-01T01:14:30.120Z,18.62
2018-06-01T01:15:30.097Z,18.62
2018-06-01T01:16:30.079Z,18.62
2018-06-01T01:17:30.129Z,18.62
2018-06-01T01:18:30.085Z,18.69
2018-06-01T01:19:30.104Z,18.75
2018-06-01T01:20:30.136Z,18.75
2018-06-01T01:21:30.167Z,18.75
2018-06-01T01:22:30.145Z,18.75
2018-06-01T01:23:30.095Z,18.81
2018-06-01T01:24:30.240Z,18.81
2018-06-01T01:25:30.230Z,18.87
2018-06-01T01:26:30.104Z,18.87
2018-06-01T01:27:30.111Z,18.87
2018-06-01T01:28:30.137Z,18.94
2018-06-01T01:29:30.127Z,18.94
2018-06-01T01:30:30.142Z,18.94
2018-06-01T01:31:30.232Z,19
2018-06-01T01:32:30.103Z,19
2018-06-01T01:33:30.111Z,18.94
2018-06-01T01:34:30.151Z,18.94
2018-06-01T01:35:30.129Z,18.94
2018-06-01T01:36:30.115Z,18.87
2018-06-01T01:37:30.126Z,18.94
2018-06-01T01:38:30.139Z,18.94
2018-06-01T01:39:30.132Z,18.81
2018-06-01T01:40:30.114Z,18.87
2018-06-01T01:41:30.105Z,18.87
2018-06-01T01:42:30.253Z,18.87
2018-06-01T01:43:30.102Z,18.87
2018-06-01T01:44:30.345Z,18.81
2018-06-01T01:45:30.146Z,18.81
2018-06-01T01:46:30.136Z,18.75
2018-06-01T01:47:30.142Z,18.75
2018-06-01T01:48:30.139Z,18.81
2018-06-01T01:49:30.143Z,18.75
2018-06-01T01:50:30.108Z,18.75
2018-06-01T01:51:30.157Z,18.81
2018-06-01T01:52:30.169Z,18.75
2018-06-01T01:53:30.137Z,18.75
2018-06-01T01:54:30.123Z,18.75
2018-06-01T01:55:30.150Z,18.81
2018-06-01T01:56:30.147Z,18.81
2018-06-01T01:57:30.159Z,18.87
2018-06-01T01:58:30.170Z,18.87
2018-06-01T01:59:30.191Z,18.87
2018-06-01T02:00:30.127Z,18.87
2018-06-01T02:01:30.139Z,18.94
2018-06-01T02:02:30.308Z,18.81
2018-06-01T02:03:30.152Z,18.87
2018-06-01T02:04:30.229Z,18.81
2018-06-01T02:05:30.230Z,18.75
2018-06-01T02:06:30.124Z,18.81
2018-06-01T02:07:30.107Z,18.81
2018-06-01T02:08:30.146Z,18.81
2018-06-01T02:09:30.196Z,18.87
2018-06-01T02:10:30.506Z,18.87
2018-06-01T02:11:30.214Z,18.87
2018-06-01T02:12:30.222Z,18.94
2018-06-01T02:13:30.181Z,18.87
2018-06-01T02:14:30.201Z,18.87
2018-06-01T02:15:30.178Z,18.81
2018-06-01T02:16:30.196Z,18.81
2018-06-01T02:17:30.193Z,18.81
2018-06-01T02:18:30.191Z,18.69
2018-06-01T02:19:30.196Z,18.62
2018-06-01T02:20:30.301Z,18.62
2018-06-01T02:21:30.141Z,18.56
2018-06-01T02:22:30.140Z,18.62
2018-06-01T02:23:30.193Z,18.62
2018-06-01T02:24:30.197Z,18.62
2018-06-01T02:25:30.203Z,18.56
2018-06-01T02:26:30.174Z,18.5
2018-06-01T02:27:30.224Z,18.56
2018-06-01T02:28:30.226Z,18.56
2018-06-01T02:29:30.200Z,18.44
2018-06-01T02:30:30.204Z,18.5
2018-06-01T02:31:30.354Z,18.44
2018-06-01T02:32:30.177Z,18.44
2018-06-01T02:33:30.258Z,18.37
2018-06-01T02:34:30.240Z,18.37
2018-06-01T02:35:30.950Z,18.37
2018-06-01T02:36:30.208Z,18.44
2018-06-01T02:37:30.189Z,18.37
2018-06-01T02:38:30.221Z,18.37
2018-06-01T02:39:30.349Z,18.37
2018-06-01T02:40:30.209Z,18.37
2018-06-01T02:41:30.220Z,18.31
2018-06-01T02:42:30.222Z,18.37
2018-06-01T02:43:30.195Z,18.37
2018-06-01T02:44:30.240Z,18.37
2018-06-01T02:45:30.256Z,18.37
2018-06-01T02:46:30.219Z,18.31
2018-06-01T02:47:30.259Z,18.37
2018-06-01T02:48:30.717Z,18.31
2018-06-01T02:49:30.202Z,18.31
2018-06-01T02:50:30.177Z,18.37
2018-06-01T02:51:30.217Z,18.31
2018-06-01T02:52:30.294Z,18.25
2018-06-01T02:53:30.200Z,18.25
2018-06-01T02:54:30.205Z,18.25
2018-06-01T02:55:30.205Z,18.25
2018-06-01T02:56:30.428Z,18.31
2018-06-01T02:57:30.221Z,18.25
2018-06-01T02:58:30.190Z,18.25
2018-06-01T02:59:30.254Z,18.19
2018-06-01T03:00:30.200Z,18.19
2018-06-01T03:01:30.206Z,18.19
2018-06-01T03:02:30.314Z,18.25
2018-06-01T03:03:30.169Z,18.19
2018-06-01T03:04:30.193Z,18.12
2018-06-01T03:05:30.200Z,18.12
2018-06-01T03:06:30.172Z,18.12
2018-06-01T03:07:30.211Z,18.12
2018-06-01T03:08:30.293Z,18.06
2018-06-01T03:09:30.204Z,18.06
2018-06-01T03:10:30.163Z,18.06
2018-06-01T03:11:30.226Z,18
2018-06-01T03:12:30.194Z,18
2018-06-01T03:13:30.187Z,18
2018-06-01T03:14:30.193Z,18.06
2018-06-01T03:15:30.222Z,18.06
2018-06-01T03:16:30.163Z,18.06
2018-06-01T03:17:30.198Z,18
2018-06-01T03:18:30.169Z,18.06
2018-06-01T03:19:30.185Z,18.06
2018-06-01T03:20:30.477Z,18
2018-06-01T03:21:30.182Z,18
2018-06-01T03:22:30.204Z,18.06
2018-06-01T03:23:30.248Z,18
2018-06-01T03:24:30.202Z,18
2018-06-01T03:25:30.267Z,18
2018-06-01T03:26:30.214Z,18.06
2018-06-01T03:27:30.184Z,18.06
2018-06-01T03:28:30.229Z,18.06
2018-06-01T03:29:30.201Z,18.06
2018-06-01T03:30:30.404Z,18.06
2018-06-01T03:31:30.197Z,18
2018-06-01T03:32:30.204Z,18
2018-06-01T03:33:30.179Z,18
2018-06-01T03:34:30.169Z,18
2018-06-01T03:35:30.178Z,17.94
2018-06-01T03:36:30.195Z,17.94
2018-06-01T03:37:30.214Z,18
2018-06-01T03:38:30.241Z,17.94
2018-06-01T03:39:30.193Z,18
2018-06-01T03:40:30.202Z,18
2018-06-01T03:41:30.177Z,18
2018-06-01T03:42:30.214Z,18
2018-06-01T03:43:30.222Z,18
2018-06-01T03:44:30.220Z,18
2018-06-01T03:45:30.199Z,18
2018-06-01T03:46:30.217Z,17.94
2018-06-01T03:47:30.307Z,18
2018-06-01T03:48:30.220Z,17.94
2018-06-01T03:49:30.210Z,17.94
2018-06-01T03:50:30.209Z,18
2018-06-01T03:51:30.184Z,17.94
2018-06-01T03:52:30.220Z,18
2018-06-01T03:53:30.265Z,17.94
2018-06-01T03:54:30.273Z,18
2018-06-01T03:55:30.243Z,18
2018-06-01T03:56:30.264Z,18
2018-06-01T03:57:30.216Z,17.94
2018-06-01T03:58:30.390Z,17.87
2018-06-01T03:59:30.225Z,17.87
2018-06-01T04:00:30.225Z,17.87
2018-06-01T04:01:30.250Z,17.87
2018-06-01T04:02:30.199Z,17.81
2018-06-01T04:03:30.220Z,17.87
2018-06-01T04:04:30.205Z,17.94
2018-06-01T04:05:30.205Z,17.94
2018-06-01T04:06:30.282Z,17.87
2018-06-01T04:07:30.324Z,17.94
2018-06-01T04:08:30.194Z,18
2018-06-01T04:09:30.238Z,18
2018-06-01T04:10:30.344Z,18
2018-06-01T04:11:30.241Z,18
2018-06-01T04:12:30.174Z,18.06
2018-06-01T04:13:30.231Z,18
2018-06-01T04:14:30.261Z,18
2018-06-01T04:15:30.237Z,18
2018-06-01T04:16:30.189Z,18.06
2018-06-01T04:17:30.262Z,18.06
2018-06-01T04:18:30.264Z,18.06
2018-06-01T04:19:30.192Z,18
2018-06-01T04:20:30.298Z,18.06
2018-06-01T04:21:30.287Z,18
2018-06-01T04:22:30.222Z,18
2018-06-01T04:23:30.220Z,18
2018-06-01T04:24:30.220Z,18
2018-06-01T04:25:30.271Z,18.06
2018-06-01T04:26:30.260Z,18.06
2018-06-01T04:27:30.273Z,18.06
2018-06-01T04:28:30.292Z,18.06
2018-06-01T04:29:30.221Z,18.12
2018-06-01T04:30:30.258Z,18.06
2018-06-01T04:31:30.188Z,18.12
2018-06-01T04:32:30.230Z,18.12
2018-06-01T04:33:30.193Z,18.12
2018-06-01T04:34:30.233Z,18.19
2018-06-01T04:35:30.231Z,18.19
2018-06-01T04:36:30.225Z,18.12
2018-06-01T04:37:30.233Z,18.12
2018-06-01T04:38:30.272Z,18.12
2018-06-01T04:39:30.293Z,18.12
2018-06-01T04:40:30.523Z,18.12
2018-06-01T04:41:30.232Z,18.19
2018-06-01T04:42:30.251Z,18.12
2018-06-01T04:43:30.245Z,18.19
2018-06-01T04:44:30.213Z,18.19
2018-06-01T04:45:30.228Z,18.19
2018-06-01T04:46:30.298Z,18.12
2018-06-01T04:47:30.229Z,18.19
2018-06-01T04:48:30.260Z,18.12
2018-06-01T04:49:30.256Z,18.12
2018-06-01T04:50:30.247Z,18.12
2018-06-01T04:51:30.302Z,18.12
2018-06-01T04:52:30.229Z,18.12
2018-06-01T04:53:30.249Z,18.12
2018-06-01T04:54:30.232Z,18.19
2018-06-01T04:55:30.268Z,18.19
2018-06-01T04:56:30.277Z,18.19
2018-06-01T04:57:30.252Z,18.25
2018-06-01T04:58:30.224Z,18.19
2018-06-01T04:59:30.253Z,18.25
2018-06-01T05:00:30.388Z,18.25
2018-06-01T05:01:30.467Z,18.25
2018-06-01T05:02:30.268Z,18.25
2018-06-01T05:03:30.229Z,18.25
2018-06-01T05:04:30.244Z,18.31
2018-06-01T05:05:30.211Z,18.31
2018-06-01T05:06:30.253Z,18.31
2018-06-01T05:07:30.276Z,18.31
2018-06-01T05:08:30.299Z,18.31
2018-06-01T05:09:30.251Z,18.31
2018-06-01T05:10:30.259Z,18.37
2018-06-01T05:11:30.263Z,18.25
2018-06-01T05:12:30.325Z,18.25
2018-06-01T05:13:30.250Z,18.31
2018-06-01T05:14:30.289Z,18.25
2018-06-01T05:15:30.355Z,18.31
2018-06-01T05:16:30.503Z,18.31
2018-06-01T05:17:30.345Z,18.37
2018-06-01T05:18:30.224Z,18.31
2018-06-01T05:19:30.268Z,18.37
2018-06-01T05:20:30.427Z,18.44
2018-06-01T05:21:30.271Z,18.37
2018-06-01T05:22:30.239Z,18.37
2018-06-01T05:23:30.249Z,18.37
2018-06-01T05:24:30.301Z,18.31
2018-06-01T05:25:30.344Z,18.44
2018-06-01T05:26:30.338Z,18.37
2018-06-01T05:27:30.289Z,18.37
2018-06-01T05:28:30.371Z,18.44
2018-06-01T05:29:30.250Z,18.44
2018-06-01T05:30:30.309Z,18.5
2018-06-01T05:31:30.269Z,18.44
2018-06-01T05:32:30.272Z,18.44
2018-06-01T05:33:30.277Z,18.5
2018-06-01T05:34:30.350Z,18.44
2018-06-01T05:35:30.760Z,18.5
2018-06-01T05:36:30.357Z,18.5
2018-06-01T05:37:30.313Z,18.5
2018-06-01T05:38:30.306Z,18.56
2018-06-01T05:39:30.545Z,18.56
2018-06-01T05:40:30.340Z,18.5
2018-06-01T05:41:30.454Z,18.5
2018-06-01T05:42:30.361Z,18.5
2018-06-01T05:43:30.312Z,18.56
2018-06-01T05:44:30.348Z,18.56
2018-06-01T05:45:30.288Z,18.56
2018-06-01T05:46:30.272Z,18.56
2018-06-01T05:47:30.894Z,18.56
2018-06-01T05:48:30.407Z,18.56
2018-06-01T05:49:30.238Z,18.56
2018-06-01T05:50:30.238Z,18.56
2018-06-01T05:51:30.245Z,18.56
2018-06-01T05:52:30.319Z,18.56
2018-06-01T05:53:30.300Z,18.5
2018-06-01T05:54:30.708Z,18.56
2018-06-01T05:55:30.296Z,18.56
2018-06-01T05:56:30.287Z,18.56
2018-06-01T05:57:30.255Z,18.62
2018-06-01T05:58:30.304Z,18.62
2018-06-01T05:59:30.298Z,18.69
2018-06-01T06:00:30.303Z,18.69
2018-06-01T06:01:30.295Z,18.69
2018-06-01T06:02:30.302Z,18.75
2018-06-01T06:03:30.333Z,18.75
2018-06-01T06:04:30.623Z,18.75
2018-06-01T06:05:30.263Z,18.81
2018-06-01T06:06:30.293Z,18.81
2018-06-01T06:07:30.226Z,18.87
2018-06-01T06:08:30.275Z,18.87
2018-06-01T06:09:30.318Z,18.87
2018-06-01T06:10:30.260Z,18.94
2018-06-01T06:11:30.281Z,18.94
2018-06-01T06:12:30.322Z,19
2018-06-01T06:13:30.823Z,18.87
2018-06-01T06:14:30.279Z,19
2018-06-01T06:15:30.659Z,19
2018-06-01T06:16:30.408Z,18.94
2018-06-01T06:17:30.336Z,19
2018-06-01T06:18:30.322Z,18.94
2018-06-01T06:19:30.384Z,19
2018-06-01T06:20:30.358Z,19
2018-06-01T06:21:30.309Z,19
2018-06-01T06:22:30.337Z,19
2018-06-01T06:23:30.342Z,19
2018-06-01T06:24:30.318Z,19
2018-06-01T06:25:30.392Z,19
2018-06-01T06:26:30.278Z,19.06
2018-06-01T06:27:30.285Z,19.06
2018-06-01T06:28:30.304Z,19.06
2018-06-01T06:29:30.410Z,19.06
2018-06-01T06:30:30.296Z,19.06
2018-06-01T06:31:30.762Z,19.06
2018-06-01T06:32:30.332Z,19.12
2018-06-01T06:33:30.328Z,19.12
2018-06-01T06:34:30.516Z,19.12
2018-06-01T06:35:30.297Z,19.12
2018-06-01T06:36:30.340Z,19.12
2018-06-01T06:37:30.449Z,19.06
2018-06-01T06:38:30.379Z,19.06
2018-06-01T06:39:30.334Z,19.06
2018-06-01T06:40:30.291Z,19.06
2018-06-01T06:41:30.344Z,19.06
2018-06-01T06:42:30.288Z,19.12
2018-06-01T06:43:30.364Z,19.06
2018-06-01T06:44:30.364Z,19.06
2018-06-01T06:45:30.276Z,19.06
2018-06-01T06:46:30.396Z,19.12
2018-06-01T06:47:30.324Z,19.12
2018-06-01T06:48:30.290Z,19.12
2018-06-01T06:49:30.371Z,19.12
2018-06-01T06:50:30.307Z,19.06
2018-06-01T06:51:30.350Z,19.06
2018-06-01T06:52:30.373Z,19.06
2018-06-01T06:53:30.342Z,19.06
2018-06-01T06:54:30.395Z,19.12
2018-06-01T06:55:30.341Z,19.19
2018-06-01T06:56:30.405Z,19.25
2018-06-01T06:57:30.372Z,19.19
2018-06-01T06:58:30.333Z,19.25
2018-06-01T06:59:30.361Z,19.25
2018-06-01T07:00:30.356Z,19.19
2018-06-01T07:01:30.345Z,19.25
2018-06-01T07:02:30.309Z,19.19
2018-06-01T07:03:30.376Z,19.25
2018-06-01T07:04:31.224Z,19.25
2018-06-01T07:05:30.344Z,19.25
2018-06-01T07:06:30.308Z,19.25
2018-06-01T07:07:30.333Z,19.25
2018-06-01T07:08:30.290Z,19.31
2018-06-01T07:09:30.291Z,19.31
2018-06-01T07:10:30.340Z,19.31
2018-06-01T07:11:30.308Z,19.31
2018-06-01T07:12:30.667Z,19.37
2018-06-01T07:13:30.344Z,19.37
2018-06-01T07:14:30.326Z,19.37
2018-06-01T07:15:30.303Z,19.44
2018-06-01T07:16:30.328Z,19.44
2018-06-01T07:17:30.344Z,19.44
2018-06-01T07:18:30.372Z,19.44
2018-06-01T07:19:30.346Z,19.44
2018-06-01T07:20:30.935Z,19.44
2018-06-01T07:21:30.423Z,19.5
2018-06-01T07:22:31.137Z,19.56
2018-06-01T07:23:30.326Z,19.5
2018-06-01T07:24:30.444Z,19.5
2018-06-01T07:25:30.283Z,19.56
2018-06-01T07:26:30.448Z,19.5
2018-06-01T07:27:30.301Z,19.5
2018-06-01T07:28:30.314Z,19.5
2018-06-01T07:29:30.375Z,19.5
2018-06-01T07:30:30.332Z,19.5
2018-06-01T07:31:30.343Z,19.5
2018-06-01T07:32:30.375Z,19.5
2018-06-01T07:33:30.344Z,19.5
2018-06-01T07:34:30.410Z,19.5
2018-06-01T07:35:30.372Z,19.56
2018-06-01T07:36:30.362Z,19.56
2018-06-01T07:37:30.461Z,19.56
2018-06-01T07:38:30.364Z,19.62
2018-06-01T07:39:30.355Z,19.69
2018-06-01T07:40:30.317Z,19.69
2018-06-01T07:41:30.367Z,19.75
2018-06-01T07:42:30.384Z,19.75
2018-06-01T07:43:30.380Z,19.81
2018-06-01T07:44:30.363Z,19.81
2018-06-01T07:45:30.358Z,19.81
2018-06-01T07:46:30.359Z,19.81
2018-06-01T07:47:30.373Z,19.81
2018-06-01T07:48:30.335Z,19.81
2018-06-01T07:49:30.405Z,19.87
2018-06-01T07:50:30.470Z,19.94
2018-06-01T07:51:30.390Z,20
2018-06-01T07:52:30.356Z,20
2018-06-01T07:53:30.394Z,20.06
2018-06-01T07:54:30.887Z,20.06
2018-06-01T07:55:30.358Z,20
2018-06-01T07:56:30.372Z,20
2018-06-01T07:57:30.339Z,20
2018-06-01T07:58:30.380Z,20
2018-06-01T07:59:30.372Z,20
2018-06-01T08:00:30.365Z,20.06
2018-06-01T08:01:30.339Z,20.06
2018-06-01T08:02:30.330Z,20.06
2018-06-01T08:03:30.762Z,20.12
2018-06-01T08:04:30.400Z,20.12
2018-06-01T08:05:30.471Z,20.19
2018-06-01T08:06:30.390Z,20.19
2018-06-01T08:07:31.936Z,20.25
2018-06-01T08:08:30.320Z,20.25
2018-06-01T08:09:30.375Z,20.19
2018-06-01T08:10:30.358Z,20.19
2018-06-01T08:11:30.950Z,20.19
2018-06-01T08:12:30.342Z,20.19
2018-06-01T08:13:30.486Z,20.25
2018-06-01T08:14:30.404Z,20.19
2018-06-01T08:15:30.507Z,20.25
2018-06-01T08:16:30.535Z,20.31
2018-06-01T08:17:30.454Z,20.31
2018-06-01T08:18:30.379Z,20.37
2018-06-01T08:19:30.341Z,20.37
2018-06-01T08:20:31.677Z,20.44
2018-06-01T08:21:31.053Z,20.37
2018-06-01T08:22:30.341Z,20.31
2018-06-01T08:23:30.383Z,20.37
2018-06-01T08:24:30.385Z,20.31
2018-06-01T08:25:30.363Z,20.25
2018-06-01T08:26:30.418Z,20.25
2018-06-01T08:27:30.365Z,20.31
2018-06-01T08:28:30.363Z,20.25
2018-06-01T08:29:30.392Z,20.31
2018-06-01T08:30:30.508Z,20.31
2018-06-01T08:31:30.365Z,20.37
2018-06-01T08:32:30.702Z,20.37
2018-06-01T08:33:30.341Z,20.37
2018-06-01T08:34:30.359Z,20.37
2018-06-01T08:35:30.373Z,20.44
2018-06-01T08:36:30.984Z,20.44
2018-06-01T08:37:30.407Z,20.44
2018-06-01T08:38:30.424Z,20.44
2018-06-01T08:39:30.758Z,20.44
2018-06-01T08:40:30.390Z,20.44
2018-06-01T08:41:30.404Z,20.44
2018-06-01T08:42:30.388Z,20.44
2018-06-01T08:43:30.381Z,20.5
2018-06-01T08:44:30.380Z,20.44
2018-06-01T08:45:30.419Z,20.56
2018-06-01T08:46:30.864Z,20.56
2018-06-01T08:47:30.359Z,20.5
2018-06-01T08:48:30.345Z,20.56
2018-06-01T08:49:30.331Z,20.56
2018-06-01T08:50:30.384Z,20.56
2018-06-01T08:51:30.488Z,20.5
2018-06-01T08:52:30.999Z,20.5
2018-06-01T08:53:30.374Z,20.5
2018-06-01T08:54:30.515Z,20.5
2018-06-01T08:55:30.643Z,20.5
2018-06-01T08:56:30.538Z,20.56
2018-06-01T08:57:30.533Z,20.56
2018-06-01T08:58:30.405Z,20.56
2018-06-01T08:59:30.353Z,20.62
2018-06-01T09:00:30.467Z,20.56
2018-06-01T09:01:30.470Z,20.62
2018-06-01T09:02:30.617Z,20.62
2018-06-01T09:03:30.510Z,20.69
2018-06-01T09:04:30.772Z,20.75
2018-06-01T09:05:30.395Z,20.69
2018-06-01T09:06:30.504Z,20.75
2018-06-01T09:07:30.552Z,20.75
2018-06-01T09:08:30.388Z,20.75
2018-06-01T09:09:30.528Z,20.81
2018-06-01T09:10:30.411Z,20.81
2018-06-01T09:11:30.543Z,20.81
2018-06-01T09:12:30.527Z,20.81
2018-06-01T09:13:30.585Z,20.75
2018-06-01T09:14:30.436Z,20.75
2018-06-01T09:15:30.564Z,20.75
2018-06-01T09:16:30.416Z,20.75
2018-06-01T09:17:30.376Z,20.75
2018-06-01T09:18:30.589Z,20.75
2018-06-01T09:19:30.698Z,20.81
2018-06-01T09:20:30.611Z,20.81
2018-06-01T09:21:30.614Z,20.88
2018-06-01T09:22:30.629Z,20.88
2018-06-01T09:23:30.974Z,20.88
2018-06-01T09:24:30.572Z,20.88
2018-06-01T09:25:30.543Z,20.94
2018-06-01T09:26:30.548Z,20.88
2018-06-01T09:27:30.539Z,20.94
2018-06-01T09:28:30.860Z,20.94
2018-06-01T09:29:30.410Z,21
2018-06-01T09:30:30.486Z,21.06
2018-06-01T09:31:30.591Z,21.06
2018-06-01T09:32:30.689Z,21
2018-06-01T09:33:30.593Z,21
2018-06-01T09:34:31.395Z,21
2018-06-01T09:35:30.376Z,21.06
2018-06-01T09:36:30.609Z,21.12
2018-06-01T09:37:30.504Z,21.12
2018-06-01T09:38:30.420Z,21.12
2018-06-01T09:39:30.520Z,21.12
2018-06-01T09:40:30.513Z,21.12
2018-06-01T09:41:30.549Z,21.19
2018-06-01T09:42:30.655Z,21.19
2018-06-01T09:43:30.762Z,21.19
2018-06-01T09:44:30.552Z,21.25
2018-06-01T09:45:30.661Z,21.25
2018-06-01T09:46:30.575Z,21.25
2018-06-01T09:47:30.466Z,21.25
2018-06-01T09:48:30.491Z,21.25
2018-06-01T09:49:30.482Z,21.25
2018-06-01T09:50:30.601Z,21.31
2018-06-01T09:51:30.612Z,21.31
2018-06-01T09:52:30.528Z,21.31
2018-06-01T09:53:30.514Z,21.37
2018-06-01T09:54:30.518Z,21.37
2018-06-01T09:55:31.234Z,21.44
2018-06-01T09:56:30.528Z,21.37
2018-06-01T09:57:30.586Z,21.44
2018-06-01T09:58:30.399Z,21.44
2018-06-01T09:59:30.575Z,21.37
2018-06-01T10:00:30.637Z,21.44
2018-06-01T10:01:30.417Z,21.37
2018-06-01T10:02:30.628Z,21.44
2018-06-01T10:03:30.467Z,21.44
2018-06-01T10:04:30.605Z,21.44
2018-06-01T10:05:30.644Z,21.5
2018-06-01T10:06:30.670Z,21.5
2018-06-01T10:07:30.556Z,21.56
2018-06-01T10:08:30.473Z,21.62
2018-06-01T10:09:30.735Z,21.69
2018-06-01T10:10:30.405Z,21.75
2018-06-01T10:11:30.428Z,21.81
2018-06-01T10:12:30.561Z,21.81
2018-06-01T10:13:30.506Z,21.87
2018-06-01T10:14:30.462Z,21.94
2018-06-01T10:15:30.949Z,22
2018-06-01T10:16:30.573Z,22
2018-06-01T10:17:30.462Z,22
2018-06-01T10:18:30.572Z,22.06
2018-06-01T10:19:30.408Z,22.13
2018-06-01T10:20:30.453Z,22.13
2018-06-01T10:21:30.524Z,22.13
2018-06-01T10:22:30.548Z,22.19
2018-06-01T10:23:30.607Z,22.13
2018-06-01T10:24:30.620Z,22.19
2018-06-01T10:25:30.388Z,22.19
2018-06-01T10:26:30.701Z,22.19
2018-06-01T10:27:30.553Z,22.19
2018-06-01T10:28:30.750Z,22.25
2018-06-01T10:29:30.432Z,22.25
2018-06-01T10:30:30.577Z,22.25
2018-06-01T10:31:30.441Z,22.19
2018-06-01T10:32:30.502Z,22.19
2018-06-01T10:33:30.636Z,22.25
2018-06-01T10:34:30.604Z,22.25
2018-06-01T10:35:30.493Z,22.31
2018-06-01T10:36:30.810Z,22.37
2018-06-01T10:37:30.401Z,22.44
2018-06-01T10:38:30.421Z,22.5
2018-06-01T10:39:31.029Z,22.5
2018-06-01T10:40:30.422Z,22.5
2018-06-01T10:41:30.447Z,22.56
2018-06-01T10:42:30.655Z,22.56
2018-06-01T10:43:30.433Z,22.56
2018-06-01T10:44:30.615Z,22.5
2018-06-01T10:45:30.559Z,22.5
2018-06-01T10:46:30.576Z,22.56
2018-06-01T10:47:30.426Z,22.56
2018-06-01T10:48:30.573Z,22.56
2018-06-01T10:49:30.575Z,22.62
2018-06-01T10:50:30.448Z,22.62
2018-06-01T10:51:30.678Z,22.62
2018-06-01T10:52:30.617Z,22.62
2018-06-01T10:53:30.499Z,22.62
2018-06-01T10:54:30.918Z,22.75
2018-06-01T10:55:30.423Z,22.75
2018-06-01T10:56:30.848Z,22.75
2018-06-01T10:57:30.453Z,22.75
2018-06-01T10:58:30.453Z,22.75
2018-06-01T10:59:30.568Z,22.81
2018-06-01T11:00:30.444Z,22.87
2018-06-01T11:01:30.745Z,22.94
2018-06-01T11:02:30.592Z,23
2018-06-01T11:03:30.456Z,23.06
2018-06-01T11:04:30.456Z,23.12
2018-06-01T11:05:30.491Z,23.25
2018-06-01T11:06:30.467Z,23.25
2018-06-01T11:07:30.448Z,23.25
2018-06-01T11:08:30.584Z,23.31
2018-06-01T11:09:30.600Z,23.31
2018-06-01T11:10:30.448Z,23.31
2018-06-01T11:11:30.659Z,23.31
2018-06-01T11:12:30.528Z,23.31
2018-06-01T11:13:30.447Z,23.31
2018-06-01T11:14:31.218Z,23.31
2018-06-01T11:15:30.447Z,23.38
2018-06-01T11:16:30.460Z,23.44
2018-06-01T11:17:30.585Z,23.44
2018-06-01T11:18:30.582Z,23.5
2018-06-01T11:19:30.624Z,23.5
2018-06-01T11:20:30.613Z,23.56
2018-06-01T11:21:30.951Z,23.56
2018-06-01T11:22:30.482Z,23.62
2018-06-01T11:23:30.615Z,23.56
2018-06-01T11:24:32.575Z,23.5
2018-06-01T11:25:30.534Z,23.5
2018-06-01T11:26:30.534Z,23.44
2018-06-01T11:27:30.468Z,23.44
2018-06-01T11:28:30.457Z,23.38
2018-06-01T11:29:30.701Z,23.38
2018-06-01T11:30:30.561Z,23.38
2018-06-01T11:31:30.549Z,23.31
2018-06-01T11:32:30.614Z,23.38
2018-06-01T11:33:31.301Z,23.5
2018-06-01T11:34:30.499Z,23.5
2018-06-01T11:35:30.509Z,23.56
2018-06-01T11:36:30.622Z,23.75
2018-06-01T11:37:30.476Z,23.81
2018-06-01T11:38:30.781Z,23.87
2018-06-01T11:39:30.535Z,24
2018-06-01T11:40:30.640Z,24
2018-06-01T11:41:30.534Z,24.12
2018-06-01T11:42:30.493Z,24.12
2018-06-01T11:43:30.559Z,24.12
2018-06-01T11:44:30.679Z,24.19
2018-06-01T11:45:30.466Z,24.19
2018-06-01T11:46:30.527Z,24.19
2018-06-01T11:47:30.593Z,24.31
2018-06-01T11:48:30.584Z,24.25
2018-06-01T11:49:30.499Z,24.25
2018-06-01T11:50:30.626Z,24.31
2018-06-01T11:51:30.867Z,24.37
2018-06-01T11:52:30.496Z,24.31
2018-06-01T11:53:30.729Z,24.37
2018-06-01T11:54:30.492Z,24.31
2018-06-01T11:55:31.454Z,24.37
2018-06-01T11:56:30.749Z,24.37
2018-06-01T11:57:30.695Z,24.44
2018-06-01T11:58:30.519Z,24.5
2018-06-01T11:59:30.734Z,24.5
2018-06-01T12:00:30.508Z,24.5
2018-06-01T12:01:30.491Z,24.5
2018-06-01T12:02:30.483Z,24.56
2018-06-01T12:03:30.733Z,24.56
2018-06-01T12:04:30.490Z,24.63
2018-06-01T12:05:30.755Z,24.63
2018-06-01T12:06:30.504Z,24.69
2018-06-01T12:07:30.568Z,24.75
2018-06-01T12:08:30.619Z,24.81
2018-06-01T12:09:30.480Z,24.87
2018-06-01T12:10:30.533Z,24.87
2018-06-01T12:11:30.693Z,24.94
2018-06-01T12:12:30.488Z,25
2018-06-01T12:13:30.544Z,25
2018-06-01T12:14:30.475Z,25
2018-06-01T12:15:30.564Z,25.06
2018-06-01T12:16:30.479Z,25
2018-06-01T12:17:30.984Z,25
2018-06-01T12:18:30.483Z,25.06
2018-06-01T12:19:30.494Z,25.12
2018-06-01T12:20:30.614Z,25.12
2018-06-01T12:21:30.502Z,24.94
2018-06-01T12:22:30.482Z,24.94
2018-06-01T12:23:30.623Z,24.94
2018-06-01T12:24:30.486Z,25
2018-06-01T12:25:30.541Z,25.06
2018-06-01T12:26:30.547Z,25.06
2018-06-01T12:27:30.505Z,25.12
2018-06-01T12:28:30.573Z,25.12
2018-06-01T12:29:30.488Z,25.12
2018-06-01T12:30:30.681Z,25.19
2018-06-01T12:31:30.542Z,25.19
2018-06-01T12:32:30.714Z,25.25
2018-06-01T12:33:30.495Z,25.31
2018-06-01T12:34:30.543Z,25.37
2018-06-01T12:35:30.647Z,25.37
2018-06-01T12:36:30.762Z,25.44
2018-06-01T12:37:31.164Z,25.44
2018-06-01T12:38:30.805Z,25.5
2018-06-01T12:39:30.566Z,25.5
2018-06-01T12:40:30.504Z,25.44
2018-06-01T12:41:30.703Z,25.5
2018-06-01T12:42:30.528Z,25.44
2018-06-01T12:43:30.553Z,25.44
2018-06-01T12:44:30.587Z,25.44
2018-06-01T12:45:30.577Z,25.5
2018-06-01T12:46:30.492Z,25.5
2018-06-01T12:47:30.693Z,25.5
2018-06-01T12:48:30.615Z,25.5
2018-06-01T12:49:30.596Z,25.44
2018-06-01T12:50:30.754Z,25.56
2018-06-01T12:51:30.606Z,25.44
2018-06-01T12:52:30.598Z,25.5
2018-06-01T12:53:30.749Z,25.5
2018-06-01T12:54:30.630Z,25.56
2018-06-01T12:55:30.736Z,25.56
2018-06-01T12:56:30.660Z,25.62
2018-06-01T12:57:30.613Z,25.69
2018-06-01T12:58:30.559Z,25.75
2018-06-01T12:59:30.667Z,25.81
2018-06-01T13:00:30.611Z,25.81
2018-06-01T13:01:30.574Z,25.88
2018-06-01T13:02:30.593Z,25.88
2018-06-01T13:03:31.072Z,25.94